sensor_id;sensor_type;location;lat;lon;timestamp;P1;durP1;ratioP1;P2;durP2;ratioP2
71183;SDS011;58887;51.980;4.464;2022-09-03T00:02:32;3.44;;;3.44;;
71183;SDS011;58887;51.980;4.464;2022-09-03T00:05:07;3.28;;;3.28;;
71183;SDS011;58887;51.980;4.464;2022-09-03T00:07:42;3.36;;;3.36;;
71183;SDS011;58887;51.980;4.464;2022-09-03T00:13:11;3.27;;;3.27;;
71183;SDS011;58887;51.980;4.464;2022-09-03T00:15:41;3.41;;;3.41;;
71183;SDS011;58887;51.980;4.464;2022-09-03T00:18:08;3.24;;;3.24;;
71183;SDS011;58887;51.980;4.464;2022-09-03T00:20:42;3.26;;;3.26;;
71183;SDS011;58887;51.980;4.464;2022-09-03T00:23:23;3.21;;;3.21;;
71183;SDS011;58887;51.980;4.464;2022-09-03T00:31:21;3.62;;;3.62;;
71183;SDS011;58887;51.980;4.464;2022-09-03T00:34:05;3.30;;;3.30;;
71183;SDS011;58887;51.980;4.464;2022-09-03T00:36:40;3.46;;;3.46;;
71183;SDS011;58887;51.980;4.464;2022-09-03T00:39:10;3.47;;;3.47;;
71183;SDS011;58887;51.980;4.464;2022-09-03T00:44:37;3.23;;;3.23;;
71183;SDS011;58887;51.980;4.464;2022-09-03T00:56:06;3.27;;;3.27;;
71183;SDS011;58887;51.980;4.464;2022-09-03T01:01:37;3.16;;;3.16;;
71183;SDS011;58887;51.980;4.464;2022-09-03T01:04:12;3.10;;;3.10;;
71183;SDS011;58887;51.980;4.464;2022-09-03T01:09:43;3.25;;;3.25;;
71183;SDS011;58887;51.980;4.464;2022-09-03T01:13:02;3.23;;;3.23;;
71183;SDS011;58887;51.980;4.464;2022-09-03T01:15:16;3.26;;;3.26;;
71183;SDS011;58887;51.980;4.464;2022-09-03T01:23:26;3.21;;;3.21;;
71183;SDS011;58887;51.980;4.464;2022-09-03T01:26:47;3.21;;;3.21;;
71183;SDS011;58887;51.980;4.464;2022-09-03T01:29:42;3.26;;;3.26;;
71183;SDS011;58887;51.980;4.464;2022-09-03T01:40:40;3.23;;;3.23;;
71183;SDS011;58887;51.980;4.464;2022-09-03T01:46:25;3.43;;;3.43;;
71183;SDS011;58887;51.980;4.464;2022-09-03T01:49:21;3.52;;;3.52;;
71183;SDS011;58887;51.980;4.464;2022-09-03T01:51:58;3.37;;;3.37;;
71183;SDS011;58887;51.980;4.464;2022-09-03T01:54:50;3.47;;;3.47;;
71183;SDS011;58887;51.980;4.464;2022-09-03T01:57:26;3.21;;;3.21;;
71183;SDS011;58887;51.980;4.464;2022-09-03T02:00:10;3.35;;;3.35;;
71183;SDS011;58887;51.980;4.464;2022-09-03T02:02:40;3.61;;;3.61;;
71183;SDS011;58887;51.980;4.464;2022-09-03T02:05:11;3.54;;;3.54;;
71183;SDS011;58887;51.980;4.464;2022-09-03T02:07:41;3.57;;;3.57;;
71183;SDS011;58887;51.980;4.464;2022-09-03T02:10:13;3.53;;;3.53;;
71183;SDS011;58887;51.980;4.464;2022-09-03T02:12:43;3.64;;;3.64;;
71183;SDS011;58887;51.980;4.464;2022-09-03T02:15:19;3.88;;;3.88;;
71183;SDS011;58887;51.980;4.464;2022-09-03T02:17:47;3.56;;;3.56;;
71183;SDS011;58887;51.980;4.464;2022-09-03T02:20:19;3.60;;;3.60;;
71183;SDS011;58887;51.980;4.464;2022-09-03T02:22:48;3.64;;;3.64;;
71183;SDS011;58887;51.980;4.464;2022-09-03T02:25:15;3.67;;;3.67;;
71183;SDS011;58887;51.980;4.464;2022-09-03T02:27:42;3.68;;;3.68;;
71183;SDS011;58887;51.980;4.464;2022-09-03T02:30:09;3.55;;;3.55;;
71183;SDS011;58887;51.980;4.464;2022-09-03T02:32:35;3.84;;;3.84;;
71183;SDS011;58887;51.980;4.464;2022-09-03T02:35:00;3.89;;;3.89;;
71183;SDS011;58887;51.980;4.464;2022-09-03T02:37:26;3.87;;;3.87;;
71183;SDS011;58887;51.980;4.464;2022-09-03T02:39:51;3.75;;;3.75;;
71183;SDS011;58887;51.980;4.464;2022-09-03T02:42:17;3.79;;;3.79;;
71183;SDS011;58887;51.980;4.464;2022-09-03T02:44:46;4.05;;;4.05;;
71183;SDS011;58887;51.980;4.464;2022-09-03T02:47:17;4.19;;;4.19;;
71183;SDS011;58887;51.980;4.464;2022-09-03T02:49:46;4.18;;;4.18;;
71183;SDS011;58887;51.980;4.464;2022-09-03T02:52:12;4.15;;;4.15;;
71183;SDS011;58887;51.980;4.464;2022-09-03T02:54:38;4.08;;;4.08;;
71183;SDS011;58887;51.980;4.464;2022-09-03T02:57:05;4.03;;;4.03;;
71183;SDS011;58887;51.980;4.464;2022-09-03T02:59:35;3.87;;;3.87;;
71183;SDS011;58887;51.980;4.464;2022-09-03T03:02:01;4.06;;;4.06;;
71183;SDS011;58887;51.980;4.464;2022-09-03T03:04:28;4.09;;;4.09;;
71183;SDS011;58887;51.980;4.464;2022-09-03T03:06:54;3.88;;;3.88;;
71183;SDS011;58887;51.980;4.464;2022-09-03T03:09:20;4.14;;;4.14;;
71183;SDS011;58887;51.980;4.464;2022-09-03T03:11:45;4.17;;;4.17;;
71183;SDS011;58887;51.980;4.464;2022-09-03T03:14:12;3.97;;;3.97;;
71183;SDS011;58887;51.980;4.464;2022-09-03T03:16:37;4.12;;;4.12;;
71183;SDS011;58887;51.980;4.464;2022-09-03T03:19:02;4.06;;;4.06;;
71183;SDS011;58887;51.980;4.464;2022-09-03T03:21:28;4.17;;;4.17;;
71183;SDS011;58887;51.980;4.464;2022-09-03T03:23:54;4.24;;;4.24;;
71183;SDS011;58887;51.980;4.464;2022-09-03T03:26:19;4.39;;;4.39;;
71183;SDS011;58887;51.980;4.464;2022-09-03T03:28:48;4.21;;;4.21;;
71183;SDS011;58887;51.980;4.464;2022-09-03T03:31:20;4.31;;;4.31;;
71183;SDS011;58887;51.980;4.464;2022-09-03T03:33:50;4.40;;;4.40;;
71183;SDS011;58887;51.980;4.464;2022-09-03T03:36:17;4.41;;;4.41;;
71183;SDS011;58887;51.980;4.464;2022-09-03T03:38:43;4.25;;;4.25;;
71183;SDS011;58887;51.980;4.464;2022-09-03T03:41:14;4.72;;;4.72;;
71183;SDS011;58887;51.980;4.464;2022-09-03T03:43:46;4.29;;;4.29;;
71183;SDS011;58887;51.980;4.464;2022-09-03T03:46:12;4.43;;;4.43;;
71183;SDS011;58887;51.980;4.464;2022-09-03T03:48:39;4.24;;;4.24;;
71183;SDS011;58887;51.980;4.464;2022-09-03T03:51:08;4.42;;;4.42;;
71183;SDS011;58887;51.980;4.464;2022-09-03T03:53:35;4.22;;;4.22;;
71183;SDS011;58887;51.980;4.464;2022-09-03T03:56:04;4.20;;;4.20;;
71183;SDS011;58887;51.980;4.464;2022-09-03T03:58:32;4.04;;;4.04;;
71183;SDS011;58887;51.980;4.464;2022-09-03T04:01:12;4.33;;;4.33;;
71183;SDS011;58887;51.980;4.464;2022-09-03T04:03:40;4.48;;;4.48;;
71183;SDS011;58887;51.980;4.464;2022-09-03T04:06:07;4.45;;;4.45;;
71183;SDS011;58887;51.980;4.464;2022-09-03T04:08:35;4.33;;;4.33;;
71183;SDS011;58887;51.980;4.464;2022-09-03T04:11:03;4.06;;;4.06;;
71183;SDS011;58887;51.980;4.464;2022-09-03T04:13:35;4.13;;;4.13;;
71183;SDS011;58887;51.980;4.464;2022-09-03T04:16:06;4.54;;;4.54;;
71183;SDS011;58887;51.980;4.464;2022-09-03T04:18:37;4.31;;;4.31;;
71183;SDS011;58887;51.980;4.464;2022-09-03T04:21:05;4.52;;;4.52;;
71183;SDS011;58887;51.980;4.464;2022-09-03T04:23:32;4.68;;;4.68;;
71183;SDS011;58887;51.980;4.464;2022-09-03T04:25:59;4.21;;;4.21;;
71183;SDS011;58887;51.980;4.464;2022-09-03T04:28:26;4.28;;;4.28;;
71183;SDS011;58887;51.980;4.464;2022-09-03T04:30:52;4.47;;;4.47;;
71183;SDS011;58887;51.980;4.464;2022-09-03T04:33:18;4.26;;;4.26;;
71183;SDS011;58887;51.980;4.464;2022-09-03T04:35:43;4.55;;;4.55;;
71183;SDS011;58887;51.980;4.464;2022-09-03T04:38:09;4.58;;;4.58;;
71183;SDS011;58887;51.980;4.464;2022-09-03T04:40:35;4.39;;;4.39;;
71183;SDS011;58887;51.980;4.464;2022-09-03T04:43:01;4.51;;;4.51;;
71183;SDS011;58887;51.980;4.464;2022-09-03T04:45:28;4.51;;;4.51;;
71183;SDS011;58887;51.980;4.464;2022-09-03T04:48:04;4.71;;;4.71;;
71183;SDS011;58887;51.980;4.464;2022-09-03T04:50:30;4.68;;;4.68;;
71183;SDS011;58887;51.980;4.464;2022-09-03T04:53:00;4.49;;;4.49;;
71183;SDS011;58887;51.980;4.464;2022-09-03T04:55:34;4.57;;;4.57;;
71183;SDS011;58887;51.980;4.464;2022-09-03T04:58:01;4.59;;;4.59;;
71183;SDS011;58887;51.980;4.464;2022-09-03T05:00:27;4.47;;;4.47;;
71183;SDS011;58887;51.980;4.464;2022-09-03T05:02:53;4.46;;;4.46;;
71183;SDS011;58887;51.980;4.464;2022-09-03T05:05:18;4.33;;;4.33;;
71183;SDS011;58887;51.980;4.464;2022-09-03T05:07:45;4.45;;;4.45;;
71183;SDS011;58887;51.980;4.464;2022-09-03T05:10:11;4.54;;;4.54;;
71183;SDS011;58887;51.980;4.464;2022-09-03T05:12:44;4.36;;;4.36;;
71183;SDS011;58887;51.980;4.464;2022-09-03T05:15:10;4.39;;;4.39;;
71183;SDS011;58887;51.980;4.464;2022-09-03T05:17:36;4.49;;;4.49;;
71183;SDS011;58887;51.980;4.464;2022-09-03T05:20:03;4.44;;;4.44;;
71183;SDS011;58887;51.980;4.464;2022-09-03T05:22:32;4.38;;;4.38;;
71183;SDS011;58887;51.980;4.464;2022-09-03T05:24:59;4.53;;;4.53;;
71183;SDS011;58887;51.980;4.464;2022-09-03T05:27:24;4.46;;;4.46;;
71183;SDS011;58887;51.980;4.464;2022-09-03T05:29:50;4.68;;;4.68;;
71183;SDS011;58887;51.980;4.464;2022-09-03T05:32:15;4.44;;;4.44;;
71183;SDS011;58887;51.980;4.464;2022-09-03T05:34:41;4.18;;;4.18;;
71183;SDS011;58887;51.980;4.464;2022-09-03T05:37:08;4.24;;;4.24;;
71183;SDS011;58887;51.980;4.464;2022-09-03T05:39:33;4.29;;;4.29;;
71183;SDS011;58887;51.980;4.464;2022-09-03T05:41:59;4.38;;;4.38;;
71183;SDS011;58887;51.980;4.464;2022-09-03T05:44:24;4.20;;;4.20;;
71183;SDS011;58887;51.980;4.464;2022-09-03T05:46:50;4.19;;;4.19;;
71183;SDS011;58887;51.980;4.464;2022-09-03T05:49:16;4.34;;;4.34;;
71183;SDS011;58887;51.980;4.464;2022-09-03T05:51:42;4.17;;;4.17;;
71183;SDS011;58887;51.980;4.464;2022-09-03T05:54:08;3.96;;;3.96;;
71183;SDS011;58887;51.980;4.464;2022-09-03T05:56:35;3.95;;;3.95;;
71183;SDS011;58887;51.980;4.464;2022-09-03T05:59:04;4.06;;;4.06;;
71183;SDS011;58887;51.980;4.464;2022-09-03T06:01:32;4.18;;;4.18;;
71183;SDS011;58887;51.980;4.464;2022-09-03T06:04:10;4.31;;;4.31;;
71183;SDS011;58887;51.980;4.464;2022-09-03T06:06:40;4.38;;;4.38;;
71183;SDS011;58887;51.980;4.464;2022-09-03T06:09:13;4.08;;;4.08;;
71183;SDS011;58887;51.980;4.464;2022-09-03T06:11:44;4.34;;;4.34;;
71183;SDS011;58887;51.980;4.464;2022-09-03T06:14:11;4.06;;;4.06;;
71183;SDS011;58887;51.980;4.464;2022-09-03T06:16:39;4.24;;;4.24;;
71183;SDS011;58887;51.980;4.464;2022-09-03T06:19:06;4.47;;;4.47;;
71183;SDS011;58887;51.980;4.464;2022-09-03T06:21:37;4.13;;;4.13;;
71183;SDS011;58887;51.980;4.464;2022-09-03T06:24:07;4.50;;;4.50;;
71183;SDS011;58887;51.980;4.464;2022-09-03T06:26:43;4.50;;;4.50;;
71183;SDS011;58887;51.980;4.464;2022-09-03T06:29:09;4.24;;;4.24;;
71183;SDS011;58887;51.980;4.464;2022-09-03T06:31:35;4.56;;;4.56;;
71183;SDS011;58887;51.980;4.464;2022-09-03T06:34:01;4.60;;;4.60;;
71183;SDS011;58887;51.980;4.464;2022-09-03T06:36:27;4.48;;;4.48;;
71183;SDS011;58887;51.980;4.464;2022-09-03T06:38:53;4.28;;;4.28;;
71183;SDS011;58887;51.980;4.464;2022-09-03T06:41:21;4.44;;;4.44;;
71183;SDS011;58887;51.980;4.464;2022-09-03T06:43:51;4.07;;;4.07;;
71183;SDS011;58887;51.980;4.464;2022-09-03T06:46:35;4.42;;;4.42;;
71183;SDS011;58887;51.980;4.464;2022-09-03T06:49:09;4.63;;;4.63;;
71183;SDS011;58887;51.980;4.464;2022-09-03T06:51:35;4.55;;;4.55;;
71183;SDS011;58887;51.980;4.464;2022-09-03T06:54:04;4.55;;;4.55;;
71183;SDS011;58887;51.980;4.464;2022-09-03T06:56:30;4.42;;;4.42;;
71183;SDS011;58887;51.980;4.464;2022-09-03T06:58:58;4.20;;;4.20;;
71183;SDS011;58887;51.980;4.464;2022-09-03T07:01:28;4.40;;;4.40;;
71183;SDS011;58887;51.980;4.464;2022-09-03T07:03:56;4.50;;;4.50;;
71183;SDS011;58887;51.980;4.464;2022-09-03T07:06:24;4.34;;;4.34;;
71183;SDS011;58887;51.980;4.464;2022-09-03T07:08:52;4.28;;;4.28;;
71183;SDS011;58887;51.980;4.464;2022-09-03T07:11:18;4.45;;;4.45;;
71183;SDS011;58887;51.980;4.464;2022-09-03T07:13:48;4.23;;;4.23;;
71183;SDS011;58887;51.980;4.464;2022-09-03T07:16:17;4.35;;;4.35;;
71183;SDS011;58887;51.980;4.464;2022-09-03T07:18:45;4.60;;;4.60;;
71183;SDS011;58887;51.980;4.464;2022-09-03T07:21:12;4.30;;;4.30;;
71183;SDS011;58887;51.980;4.464;2022-09-03T07:23:39;4.53;;;4.53;;
71183;SDS011;58887;51.980;4.464;2022-09-03T07:26:07;4.16;;;4.16;;
71183;SDS011;58887;51.980;4.464;2022-09-03T07:28:44;4.09;;;4.09;;
71183;SDS011;58887;51.980;4.464;2022-09-03T07:31:14;3.92;;;3.92;;
71183;SDS011;58887;51.980;4.464;2022-09-03T07:33:44;4.17;;;4.17;;
71183;SDS011;58887;51.980;4.464;2022-09-03T07:36:11;4.15;;;4.15;;
71183;SDS011;58887;51.980;4.464;2022-09-03T07:38:40;3.90;;;3.90;;
71183;SDS011;58887;51.980;4.464;2022-09-03T07:41:08;4.06;;;4.06;;
71183;SDS011;58887;51.980;4.464;2022-09-03T07:43:37;4.00;;;4.00;;
71183;SDS011;58887;51.980;4.464;2022-09-03T07:46:13;3.63;;;3.63;;
71183;SDS011;58887;51.980;4.464;2022-09-03T07:48:50;3.95;;;3.95;;
71183;SDS011;58887;51.980;4.464;2022-09-03T07:51:17;3.65;;;3.65;;
71183;SDS011;58887;51.980;4.464;2022-09-03T07:53:45;3.97;;;3.97;;
71183;SDS011;58887;51.980;4.464;2022-09-03T07:56:12;3.82;;;3.82;;
71183;SDS011;58887;51.980;4.464;2022-09-03T07:58:39;3.90;;;3.90;;
71183;SDS011;58887;51.980;4.464;2022-09-03T08:01:09;3.81;;;3.81;;
71183;SDS011;58887;51.980;4.464;2022-09-03T08:03:43;3.53;;;3.53;;
71183;SDS011;58887;51.980;4.464;2022-09-03T08:06:11;3.73;;;3.73;;
71183;SDS011;58887;51.980;4.464;2022-09-03T08:08:37;4.05;;;4.05;;
71183;SDS011;58887;51.980;4.464;2022-09-03T08:11:05;3.89;;;3.89;;
71183;SDS011;58887;51.980;4.464;2022-09-03T08:13:36;3.85;;;3.85;;
71183;SDS011;58887;51.980;4.464;2022-09-03T08:16:02;3.31;;;3.31;;
71183;SDS011;58887;51.980;4.464;2022-09-03T08:18:29;3.45;;;3.45;;
71183;SDS011;58887;51.980;4.464;2022-09-03T08:20:59;3.27;;;3.27;;
71183;SDS011;58887;51.980;4.464;2022-09-03T08:23:25;3.28;;;3.28;;
71183;SDS011;58887;51.980;4.464;2022-09-03T08:26:00;3.54;;;3.54;;
71183;SDS011;58887;51.980;4.464;2022-09-03T08:28:26;3.26;;;3.26;;
71183;SDS011;58887;51.980;4.464;2022-09-03T08:30:54;3.44;;;3.44;;
71183;SDS011;58887;51.980;4.464;2022-09-03T08:33:20;3.40;;;3.40;;
71183;SDS011;58887;51.980;4.464;2022-09-03T08:36:04;3.48;;;3.48;;
71183;SDS011;58887;51.980;4.464;2022-09-03T08:38:32;3.46;;;3.46;;
71183;SDS011;58887;51.980;4.464;2022-09-03T08:41:02;3.68;;;3.68;;
71183;SDS011;58887;51.980;4.464;2022-09-03T08:43:37;3.45;;;3.45;;
71183;SDS011;58887;51.980;4.464;2022-09-03T08:49:03;3.14;;;3.14;;
71183;SDS011;58887;51.980;4.464;2022-09-03T08:51:34;3.11;;;3.11;;
71183;SDS011;58887;51.980;4.464;2022-09-03T08:54:03;3.24;;;3.24;;
71183;SDS011;58887;51.980;4.464;2022-09-03T08:59:30;3.00;;;3.00;;
71183;SDS011;58887;51.980;4.464;2022-09-03T09:02:40;2.94;;;2.94;;
71183;SDS011;58887;51.980;4.464;2022-09-03T09:05:11;2.94;;;2.94;;
71183;SDS011;58887;51.980;4.464;2022-09-03T09:07:50;3.21;;;3.21;;
71183;SDS011;58887;51.980;4.464;2022-09-03T09:10:46;2.78;;;2.78;;
71183;SDS011;58887;51.980;4.464;2022-09-03T09:21:22;3.00;;;3.00;;
71183;SDS011;58887;51.980;4.464;2022-09-03T09:23:54;3.12;;;3.12;;
71183;SDS011;58887;51.980;4.464;2022-09-03T09:26:30;3.15;;;3.15;;
71183;SDS011;58887;51.980;4.464;2022-09-03T09:29:03;3.04;;;3.04;;
71183;SDS011;58887;51.980;4.464;2022-09-03T09:31:34;2.94;;;2.94;;
71183;SDS011;58887;51.980;4.464;2022-09-03T09:34:03;3.08;;;3.08;;
71183;SDS011;58887;51.980;4.464;2022-09-03T09:36:31;3.09;;;3.09;;
71183;SDS011;58887;51.980;4.464;2022-09-03T09:39:08;3.18;;;3.18;;
71183;SDS011;58887;51.980;4.464;2022-09-03T09:41:34;3.05;;;3.05;;
71183;SDS011;58887;51.980;4.464;2022-09-03T09:44:00;3.07;;;3.07;;
71183;SDS011;58887;51.980;4.464;2022-09-03T09:46:31;2.85;;;2.85;;
71183;SDS011;58887;51.980;4.464;2022-09-03T09:49:06;3.09;;;3.09;;
71183;SDS011;58887;51.980;4.464;2022-09-03T09:51:58;2.73;;;2.73;;
71183;SDS011;58887;51.980;4.464;2022-09-03T09:54:26;2.97;;;2.97;;
71183;SDS011;58887;51.980;4.464;2022-09-03T09:56:59;3.13;;;3.13;;
71183;SDS011;58887;51.980;4.464;2022-09-03T09:59:27;2.85;;;2.85;;
71183;SDS011;58887;51.980;4.464;2022-09-03T10:02:01;2.91;;;2.91;;
71183;SDS011;58887;51.980;4.464;2022-09-03T10:04:33;3.04;;;3.04;;
71183;SDS011;58887;51.980;4.464;2022-09-03T10:12:25;2.90;;;2.90;;
71183;SDS011;58887;51.980;4.464;2022-09-03T10:20:14;2.66;;;2.66;;
71183;SDS011;58887;51.980;4.464;2022-09-03T10:28:28;2.81;;;2.81;;
71183;SDS011;58887;51.980;4.464;2022-09-03T10:42:33;2.63;;;2.63;;
71183;SDS011;58887;51.980;4.464;2022-09-03T10:55:43;2.43;;;2.43;;
71183;SDS011;58887;51.980;4.464;2022-09-03T11:01:02;2.40;;;2.40;;
71183;SDS011;58887;51.980;4.464;2022-09-03T11:08:57;2.60;;;2.60;;
71183;SDS011;58887;51.980;4.464;2022-09-03T11:11:34;2.43;;;2.43;;
71183;SDS011;58887;51.980;4.464;2022-09-03T11:14:10;2.67;;;2.67;;
71183;SDS011;58887;51.980;4.464;2022-09-03T11:16:50;2.44;;;2.44;;
71183;SDS011;58887;51.980;4.464;2022-09-03T11:19:26;2.43;;;2.43;;
71183;SDS011;58887;51.980;4.464;2022-09-03T11:22:03;2.63;;;2.63;;
71183;SDS011;58887;51.980;4.464;2022-09-03T11:24:32;2.74;;;2.74;;
71183;SDS011;58887;51.980;4.464;2022-09-03T11:27:09;2.73;;;2.73;;
71183;SDS011;58887;51.980;4.464;2022-09-03T11:30:05;2.84;;;2.84;;
71183;SDS011;58887;51.980;4.464;2022-09-03T11:35:15;2.98;;;2.98;;
71183;SDS011;58887;51.980;4.464;2022-09-03T11:38:32;2.77;;;2.77;;
71183;SDS011;58887;51.980;4.464;2022-09-03T11:40:40;3.01;;;3.01;;
71183;SDS011;58887;51.980;4.464;2022-09-03T11:45:59;2.56;;;2.56;;
71183;SDS011;58887;51.980;4.464;2022-09-03T11:48:33;2.60;;;2.60;;
71183;SDS011;58887;51.980;4.464;2022-09-03T11:51:17;2.87;;;2.87;;
71183;SDS011;58887;51.980;4.464;2022-09-03T11:54:01;2.68;;;2.68;;
71183;SDS011;58887;51.980;4.464;2022-09-03T11:56:29;3.00;;;3.00;;
71183;SDS011;58887;51.980;4.464;2022-09-03T11:58:58;3.24;;;3.24;;
71183;SDS011;58887;51.980;4.464;2022-09-03T12:01:28;3.14;;;3.14;;
71183;SDS011;58887;51.980;4.464;2022-09-03T12:03:57;3.00;;;3.00;;
71183;SDS011;58887;51.980;4.464;2022-09-03T12:06:35;3.39;;;3.39;;
71183;SDS011;58887;51.980;4.464;2022-09-03T12:09:29;3.25;;;3.25;;
71183;SDS011;58887;51.980;4.464;2022-09-03T12:20:37;3.03;;;3.03;;
71183;SDS011;58887;51.980;4.464;2022-09-03T12:23:03;3.09;;;3.09;;
71183;SDS011;58887;51.980;4.464;2022-09-03T12:25:29;3.24;;;3.24;;
71183;SDS011;58887;51.980;4.464;2022-09-03T12:27:56;3.07;;;3.07;;
71183;SDS011;58887;51.980;4.464;2022-09-03T12:30:29;3.12;;;3.12;;
71183;SDS011;58887;51.980;4.464;2022-09-03T12:33:04;3.15;;;3.15;;
71183;SDS011;58887;51.980;4.464;2022-09-03T12:35:32;3.08;;;3.08;;
71183;SDS011;58887;51.980;4.464;2022-09-03T12:37:58;3.43;;;3.43;;
71183;SDS011;58887;51.980;4.464;2022-09-03T12:40:25;3.13;;;3.13;;
71183;SDS011;58887;51.980;4.464;2022-09-03T12:42:52;3.15;;;3.15;;
71183;SDS011;58887;51.980;4.464;2022-09-03T12:45:20;2.99;;;2.99;;
71183;SDS011;58887;51.980;4.464;2022-09-03T12:47:51;3.34;;;3.34;;
71183;SDS011;58887;51.980;4.464;2022-09-03T12:52:47;3.48;;;3.48;;
71183;SDS011;58887;51.980;4.464;2022-09-03T12:55:28;3.31;;;3.31;;
71183;SDS011;58887;51.980;4.464;2022-09-03T12:58:07;3.31;;;3.31;;
71183;SDS011;58887;51.980;4.464;2022-09-03T13:00:46;2.75;;;2.75;;
71183;SDS011;58887;51.980;4.464;2022-09-03T13:03:22;2.60;;;2.60;;
71183;SDS011;58887;51.980;4.464;2022-09-03T13:06:17;3.20;;;3.20;;
71183;SDS011;58887;51.980;4.464;2022-09-03T13:08:45;3.33;;;3.33;;
71183;SDS011;58887;51.980;4.464;2022-09-03T13:11:17;3.33;;;3.33;;
71183;SDS011;58887;51.980;4.464;2022-09-03T13:24:46;3.16;;;3.16;;
71183;SDS011;58887;51.980;4.464;2022-09-03T13:30:22;2.95;;;2.95;;
71183;SDS011;58887;51.980;4.464;2022-09-03T13:35:48;2.79;;;2.79;;
71183;SDS011;58887;51.980;4.464;2022-09-03T13:38:28;3.01;;;3.01;;
71183;SDS011;58887;51.980;4.464;2022-09-03T13:44:00;3.08;;;3.08;;
71183;SDS011;58887;51.980;4.464;2022-09-03T13:46:45;3.34;;;3.34;;
71183;SDS011;58887;51.980;4.464;2022-09-03T13:52:38;3.19;;;3.19;;
71183;SDS011;58887;51.980;4.464;2022-09-03T14:00:46;3.13;;;3.13;;
71183;SDS011;58887;51.980;4.464;2022-09-03T14:14:03;3.08;;;3.08;;
71183;SDS011;58887;51.980;4.464;2022-09-03T14:21:47;3.17;;;3.17;;
71183;SDS011;58887;51.980;4.464;2022-09-03T14:24:30;3.24;;;3.24;;
71183;SDS011;58887;51.980;4.464;2022-09-03T14:27:11;3.11;;;3.11;;
71183;SDS011;58887;51.980;4.464;2022-09-03T14:29:37;3.21;;;3.21;;
71183;SDS011;58887;51.980;4.464;2022-09-03T14:35:08;3.12;;;3.12;;
71183;SDS011;58887;51.980;4.464;2022-09-03T14:40:15;3.40;;;3.40;;
71183;SDS011;58887;51.980;4.464;2022-09-03T14:45:40;3.31;;;3.31;;
71183;SDS011;58887;51.980;4.464;2022-09-03T14:51:41;3.12;;;3.12;;
71183;SDS011;58887;51.980;4.464;2022-09-03T15:05:03;3.01;;;3.01;;
71183;SDS011;58887;51.980;4.464;2022-09-03T15:07:52;3.16;;;3.16;;
71183;SDS011;58887;51.980;4.464;2022-09-03T15:12:54;2.76;;;2.76;;
71183;SDS011;58887;51.980;4.464;2022-09-03T15:18:51;3.27;;;3.27;;
71183;SDS011;58887;51.980;4.464;2022-09-03T15:24:30;2.96;;;2.96;;
71183;SDS011;58887;51.980;4.464;2022-09-03T15:30:11;2.65;;;2.65;;
71183;SDS011;58887;51.980;4.464;2022-09-03T15:38:07;2.86;;;2.86;;
71183;SDS011;58887;51.980;4.464;2022-09-03T15:40:40;2.88;;;2.88;;
71183;SDS011;58887;51.980;4.464;2022-09-03T15:43:20;3.07;;;3.07;;
71183;SDS011;58887;51.980;4.464;2022-09-03T15:45:55;2.94;;;2.94;;
71183;SDS011;58887;51.980;4.464;2022-09-03T15:48:33;2.64;;;2.64;;
71183;SDS011;58887;51.980;4.464;2022-09-03T15:53:57;6.07;;;6.07;;
71183;SDS011;58887;51.980;4.464;2022-09-03T15:59:11;3.31;;;3.31;;
71183;SDS011;58887;51.980;4.464;2022-09-03T16:07:23;3.25;;;3.25;;
71183;SDS011;58887;51.980;4.464;2022-09-03T16:16:10;2.90;;;2.90;;
71183;SDS011;58887;51.980;4.464;2022-09-03T16:18:27;2.82;;;2.82;;
71183;SDS011;58887;51.980;4.464;2022-09-03T16:24:14;4.48;;;4.48;;
71183;SDS011;58887;51.980;4.464;2022-09-03T16:26:55;4.51;;;4.51;;
71183;SDS011;58887;51.980;4.464;2022-09-03T16:29:29;4.33;;;4.33;;
71183;SDS011;58887;51.980;4.464;2022-09-03T16:39:51;7.69;;;7.69;;
71183;SDS011;58887;51.980;4.464;2022-09-03T16:45:37;2.88;;;2.88;;
71183;SDS011;58887;51.980;4.464;2022-09-03T17:02:16;2.93;;;2.93;;
71183;SDS011;58887;51.980;4.464;2022-09-03T17:05:18;3.05;;;3.05;;
71183;SDS011;58887;51.980;4.464;2022-09-03T17:11:06;2.98;;;2.98;;
71183;SDS011;58887;51.980;4.464;2022-09-03T17:14:16;2.90;;;2.90;;
71183;SDS011;58887;51.980;4.464;2022-09-03T17:20:03;3.12;;;3.12;;
71183;SDS011;58887;51.980;4.464;2022-09-03T17:25:07;3.00;;;3.00;;
71183;SDS011;58887;51.980;4.464;2022-09-03T17:30:42;2.96;;;2.96;;
71183;SDS011;58887;51.980;4.464;2022-09-03T17:36:14;2.91;;;2.91;;
71183;SDS011;58887;51.980;4.464;2022-09-03T17:49:58;3.12;;;3.12;;
71183;SDS011;58887;51.980;4.464;2022-09-03T17:52:48;2.83;;;2.83;;
71183;SDS011;58887;51.980;4.464;2022-09-03T17:55:22;2.90;;;2.90;;
71183;SDS011;58887;51.980;4.464;2022-09-03T17:58:07;3.19;;;3.19;;
71183;SDS011;58887;51.980;4.464;2022-09-03T18:00:58;3.91;;;3.91;;
71183;SDS011;58887;51.980;4.464;2022-09-03T18:06:53;10.15;;;10.15;;
71183;SDS011;58887;51.980;4.464;2022-09-03T18:11:48;5.44;;;5.44;;
71183;SDS011;58887;51.980;4.464;2022-09-03T18:14:32;5.25;;;5.25;;
71183;SDS011;58887;51.980;4.464;2022-09-03T18:17:09;4.81;;;4.81;;
71183;SDS011;58887;51.980;4.464;2022-09-03T18:19:54;4.38;;;4.38;;
71183;SDS011;58887;51.980;4.464;2022-09-03T18:26:05;3.69;;;3.69;;
71183;SDS011;58887;51.980;4.464;2022-09-03T18:29:06;3.68;;;3.68;;
71183;SDS011;58887;51.980;4.464;2022-09-03T18:31:59;3.80;;;3.80;;
71183;SDS011;58887;51.980;4.464;2022-09-03T18:34:44;3.78;;;3.78;;
71183;SDS011;58887;51.980;4.464;2022-09-03T18:37:29;3.90;;;3.90;;
71183;SDS011;58887;51.980;4.464;2022-09-03T18:40:17;3.54;;;3.54;;
71183;SDS011;58887;51.980;4.464;2022-09-03T18:43:18;3.74;;;3.74;;
71183;SDS011;58887;51.980;4.464;2022-09-03T18:46:25;3.84;;;3.84;;
71183;SDS011;58887;51.980;4.464;2022-09-03T18:49:31;3.61;;;3.61;;
71183;SDS011;58887;51.980;4.464;2022-09-03T18:52:33;3.70;;;3.70;;
71183;SDS011;58887;51.980;4.464;2022-09-03T18:55:51;3.74;;;3.74;;
71183;SDS011;58887;51.980;4.464;2022-09-03T18:58:45;3.50;;;3.50;;
71183;SDS011;58887;51.980;4.464;2022-09-03T19:01:48;3.95;;;3.95;;
71183;SDS011;58887;51.980;4.464;2022-09-03T19:11:09;3.69;;;3.69;;
71183;SDS011;58887;51.980;4.464;2022-09-03T19:14:07;3.43;;;3.43;;
71183;SDS011;58887;51.980;4.464;2022-09-03T19:20:44;3.79;;;3.79;;
71183;SDS011;58887;51.980;4.464;2022-09-03T19:23:45;3.76;;;3.76;;
71183;SDS011;58887;51.980;4.464;2022-09-03T19:26:37;3.62;;;3.62;;
71183;SDS011;58887;51.980;4.464;2022-09-03T19:29:37;3.76;;;3.76;;
71183;SDS011;58887;51.980;4.464;2022-09-03T19:42:02;4.19;;;4.19;;
71183;SDS011;58887;51.980;4.464;2022-09-03T19:45:05;3.73;;;3.73;;
71183;SDS011;58887;51.980;4.464;2022-09-03T19:53:54;3.89;;;3.89;;
71183;SDS011;58887;51.980;4.464;2022-09-03T19:56:42;4.12;;;4.12;;
71183;SDS011;58887;51.980;4.464;2022-09-03T19:59:32;3.77;;;3.77;;
71183;SDS011;58887;51.980;4.464;2022-09-03T20:02:22;4.07;;;4.07;;
71183;SDS011;58887;51.980;4.464;2022-09-03T20:05:09;4.15;;;4.15;;
71183;SDS011;58887;51.980;4.464;2022-09-03T20:07:58;4.33;;;4.33;;
71183;SDS011;58887;51.980;4.464;2022-09-03T20:10:42;4.19;;;4.19;;
71183;SDS011;58887;51.980;4.464;2022-09-03T20:13:14;4.63;;;4.63;;
71183;SDS011;58887;51.980;4.464;2022-09-03T20:15:46;4.28;;;4.28;;
71183;SDS011;58887;51.980;4.464;2022-09-03T20:26:59;4.12;;;4.12;;
71183;SDS011;58887;51.980;4.464;2022-09-03T20:32:31;4.88;;;4.88;;
71183;SDS011;58887;51.980;4.464;2022-09-03T20:40:32;4.33;;;4.33;;
71183;SDS011;58887;51.980;4.464;2022-09-03T20:52:00;6.34;;;6.34;;
71183;SDS011;58887;51.980;4.464;2022-09-03T20:54:33;6.26;;;6.26;;
71183;SDS011;58887;51.980;4.464;2022-09-03T21:02:50;6.87;;;6.87;;
71183;SDS011;58887;51.980;4.464;2022-09-03T21:11:14;6.52;;;6.52;;
71183;SDS011;58887;51.980;4.464;2022-09-03T21:24:45;6.45;;;6.45;;
71183;SDS011;58887;51.980;4.464;2022-09-03T21:27:21;5.98;;;5.98;;
71183;SDS011;58887;51.980;4.464;2022-09-03T21:29:59;5.93;;;5.93;;